createdAt,value
2019-05-16T00:01:19.318Z,101186.66
2019-05-16T00:03:51.751Z,101195.18
2019-05-16T00:06:23.810Z,101189.03
2019-05-16T00:08:58.475Z,101187.19
2019-05-16T00:11:29.598Z,101185.64
2019-05-16T00:14:01.253Z,101194.27
2019-05-16T00:16:33.239Z,101188.38
2019-05-16T00:19:04.762Z,101186.79
2019-05-16T00:21:38.317Z,101179.23
2019-05-16T00:24:10.129Z,101176.03
2019-05-16T00:26:42.421Z,101178.05
2019-05-16T00:29:14.169Z,101174.66
2019-05-16T00:31:48.522Z,101174.77
2019-05-16T00:34:20.135Z,101175.66
2019-05-16T00:36:51.788Z,101178.38
2019-05-16T00:39:23.933Z,101172.35
2019-05-16T00:41:58.222Z,101171.83
2019-05-16T00:44:29.622Z,101168.66
2019-05-16T00:47:01.472Z,101171.16
2019-05-16T00:49:33.650Z,101172.60
2019-05-16T00:52:07.669Z,101166.45
2019-05-16T00:54:39.003Z,101173.05
2019-05-16T00:57:11.578Z,101172.34
2019-05-16T00:59:43.957Z,101171.05
2019-05-16T01:02:15.506Z,101167.58
2019-05-16T01:04:48.730Z,101170.33
2019-05-16T01:07:20.465Z,101165.98
2019-05-16T01:09:52.609Z,101171.17
2019-05-16T01:12:24.382Z,101168.75
2019-05-16T01:14:58.291Z,101173.66
2019-05-16T01:17:29.621Z,101172.83
2019-05-16T01:20:01.511Z,101170.64
2019-05-16T01:22:34.384Z,101177.62
2019-05-16T01:25:09.320Z,101177.59
2019-05-16T01:27:40.563Z,101175.97
2019-05-16T01:30:12.832Z,101175.63
2019-05-16T01:32:49.262Z,101170.79
2019-05-16T01:35:21.471Z,101176.27
2019-05-16T01:37:53.620Z,101174.72
2019-05-16T01:40:25.492Z,101176.88
2019-05-16T01:42:58.069Z,101177.13
2019-05-16T01:45:30.220Z,101174.16
2019-05-16T01:48:02.101Z,101167.61
2019-05-16T01:50:34.372Z,101167.61
2019-05-16T01:53:08.454Z,101174.11
2019-05-16T01:55:39.828Z,101176.84
2019-05-16T01:58:12.019Z,101171.73
2019-05-16T02:00:52.325Z,101171.20
2019-05-16T02:03:19.017Z,101169.31
2019-05-16T02:05:50.855Z,101174.45
2019-05-16T02:08:22.786Z,101176.61
2019-05-16T02:10:54.403Z,101174.45
2019-05-16T02:13:28.527Z,101178.27
2019-05-16T02:15:59.832Z,101180.45
2019-05-16T02:18:31.692Z,101175.02
2019-05-16T02:21:03.758Z,101177.17
2019-05-16T02:23:37.779Z,101183.11
2019-05-16T02:26:09.028Z,101176.04
2019-05-16T02:28:43.701Z,101180.92
2019-05-16T02:31:15.426Z,101175.73
2019-05-16T02:33:50.812Z,101181.98
2019-05-16T02:36:21.930Z,101177.86
2019-05-16T02:38:55.585Z,101177.86
2019-05-16T02:41:27.551Z,101188.48
2019-05-16T02:44:01.222Z,101183.08
2019-05-16T02:46:33.220Z,101181.55
2019-05-16T02:49:05.388Z,101179.97
2019-05-16T02:51:40.404Z,101182.69
2019-05-16T02:54:11.221Z,101180.73
2019-05-16T02:56:52.822Z,101183.03
2019-05-16T02:59:24.702Z,101178.50
2019-05-16T03:01:56.475Z,101179.06
2019-05-16T03:04:30.655Z,101174.52
2019-05-16T03:07:03.239Z,101181.19
2019-05-16T03:09:36.069Z,101179.48
2019-05-16T03:12:10.572Z,101181.30
2019-05-16T03:14:42.006Z,101185.78
2019-05-16T03:17:15.719Z,101184.28
2019-05-16T03:19:51.071Z,101181.95
2019-05-16T03:22:24.741Z,101188.60
2019-05-16T03:24:56.805Z,101191.75
2019-05-16T03:27:30.595Z,101190.78
2019-05-16T03:30:02.687Z,101193.90
2019-05-16T03:32:34.888Z,101186.40
2019-05-16T03:35:07.956Z,101194.48
2019-05-16T03:37:54.493Z,101191.34
2019-05-16T03:40:27.264Z,101198.28
2019-05-16T03:43:01.657Z,101191.05
2019-05-16T03:45:33.746Z,101196.58
2019-05-16T03:48:05.492Z,101193.32
2019-05-16T03:50:37.139Z,101196.54
2019-05-16T03:53:11.730Z,101196.48
2019-05-16T03:55:42.187Z,101197.05
2019-05-16T03:58:14.254Z,101191.58
2019-05-16T04:00:55.069Z,101191.59
2019-05-16T04:03:28.803Z,101188.04
2019-05-16T04:06:01.646Z,101194.30
2019-05-16T04:08:33.691Z,101194.84
2019-05-16T04:11:05.542Z,101191.75
2019-05-16T04:13:40.812Z,101195.27
2019-05-16T04:16:11.850Z,101191.37
2019-05-16T04:18:43.993Z,101194.77
2019-05-16T04:21:17.723Z,101193.77
2019-05-16T04:23:50.517Z,101184.88
2019-05-16T04:26:22.553Z,101186.59
2019-05-16T04:28:54.707Z,101186.89
2019-05-16T04:31:26.670Z,101197.02
2019-05-16T04:34:01.130Z,101190.16
2019-05-16T04:36:32.661Z,101189.10
2019-05-16T04:39:06.435Z,101189.55
2019-05-16T04:41:40.911Z,101184.23
2019-05-16T04:44:12.004Z,101182.22
2019-05-16T04:46:43.713Z,101182.14
2019-05-16T04:49:15.334Z,101180.44
2019-05-16T04:51:47.038Z,101182.00
2019-05-16T04:54:21.518Z,101172.31
2019-05-16T04:56:52.250Z,101176.95
2019-05-16T04:59:24.011Z,101168.67
2019-05-16T05:01:57.306Z,101169.75
2019-05-16T05:04:30.632Z,101177.23
2019-05-16T05:07:02.733Z,101173.61
2019-05-16T05:09:34.515Z,101175.72
2019-05-16T05:12:06.146Z,101167.73
2019-05-16T05:14:41.324Z,101162.14
2019-05-16T05:17:11.619Z,101169.13
2019-05-16T05:19:43.688Z,101169.59
2019-05-16T05:22:15.650Z,101160.98
2019-05-16T05:24:50.817Z,101163.47
2019-05-16T05:27:22.551Z,101172.41
2019-05-16T05:29:55.725Z,101172.97
2019-05-16T05:32:27.581Z,101172.45
2019-05-16T05:34:59.981Z,101173.28
2019-05-16T05:37:31.914Z,101175.42
2019-05-16T05:40:05.474Z,101172.36
2019-05-16T05:42:39.771Z,101175.64
2019-05-16T05:45:11.875Z,101169.39
2019-05-16T05:47:43.878Z,101173.08
2019-05-16T05:50:15.828Z,101164.49
2019-05-16T05:52:47.583Z,101166.01
2019-05-16T05:55:20.192Z,101163.12
2019-05-16T05:57:51.934Z,101162.52
2019-05-16T06:00:24.099Z,101159.78
2019-05-16T06:02:56.165Z,101162.23
2019-05-16T06:05:30.444Z,101157.06
2019-05-16T06:08:01.645Z,101152.14
2019-05-16T06:10:33.586Z,101150.91
2019-05-16T06:13:05.532Z,101154.27
2019-05-16T06:15:37.209Z,101151.44
2019-05-16T06:18:10.819Z,101149.05
2019-05-16T06:20:42.650Z,101151.16
2019-05-16T06:23:14.529Z,101147.59
2019-05-16T06:25:46.595Z,101149.70
2019-05-16T06:28:20.689Z,101151.80
2019-05-16T06:30:52.777Z,101146.18
2019-05-16T06:33:24.736Z,101149.94
2019-05-16T06:35:56.373Z,101154.65
2019-05-16T06:38:29.862Z,101156.74
2019-05-16T06:41:01.424Z,101155.78
2019-05-16T06:43:33.755Z,101157.50
2019-05-16T06:46:05.780Z,101153.20
2019-05-16T06:48:39.808Z,101154.12
2019-05-16T06:51:11.239Z,101157.48
2019-05-16T06:53:43.287Z,101157.58
2019-05-16T06:56:15.168Z,101159.45
2019-05-16T06:58:50.970Z,101163.06
2019-05-16T07:01:21.010Z,101158.98
2019-05-16T07:03:52.995Z,101163.23
2019-05-16T07:06:47.659Z,101171.34
2019-05-16T07:09:01.028Z,101167.70
2019-05-16T07:11:34.610Z,101173.48
2019-05-16T07:14:06.892Z,101173.28
2019-05-16T07:16:41.309Z,101174.13
2019-05-16T07:19:13.081Z,101165.87
2019-05-16T07:21:44.915Z,101170.30
2019-05-16T07:24:17.113Z,101171.25
2019-05-16T07:26:50.131Z,101169.41
2019-05-16T07:29:22.045Z,101172.08
2019-05-16T07:31:53.906Z,101165.33
2019-05-16T07:34:25.771Z,101161.25
2019-05-16T07:37:00.326Z,101154.19
2019-05-16T07:39:31.050Z,101154.19
2019-05-16T07:42:03.305Z,101160.59
2019-05-16T07:44:35.346Z,101152.84
2019-05-16T07:47:11.079Z,101153.59
2019-05-16T07:49:42.140Z,101153.94
2019-05-16T07:52:13.991Z,101150.43
2019-05-16T07:54:45.772Z,101155.05
2019-05-16T07:57:20.458Z,101154.15
2019-05-16T07:59:50.685Z,101153.48
2019-05-16T08:02:22.463Z,101146.64
2019-05-16T08:04:54.221Z,101152.64
2019-05-16T08:07:26.210Z,101145.55
2019-05-16T08:09:59.898Z,101145.70
2019-05-16T08:12:33.063Z,101141.59
2019-05-16T08:15:07.003Z,101147.57
2019-05-16T08:17:44.185Z,101140.02
2019-05-16T08:20:11.765Z,101140.23
2019-05-16T08:22:44.136Z,101134.26
2019-05-16T08:25:16.204Z,101138.66
2019-05-16T08:27:51.691Z,101140.05
2019-05-16T08:30:21.458Z,101128.44
2019-05-16T08:32:53.429Z,101135.17
2019-05-16T08:35:25.374Z,101130.61
2019-05-16T08:38:00.818Z,101126.02
2019-05-16T08:40:31.643Z,101130.38
2019-05-16T08:43:03.324Z,101127.20
2019-05-16T08:45:35.570Z,101130.98
2019-05-16T08:48:07.329Z,101125.42
2019-05-16T08:50:42.086Z,101122.62
2019-05-16T08:53:13.737Z,101118.45
2019-05-16T08:55:45.352Z,101123.61
2019-05-16T08:58:17.296Z,101115.89
2019-05-16T09:00:55.325Z,101115.08
2019-05-16T09:03:24.647Z,101116.64
2019-05-16T09:05:56.305Z,101112.84
2019-05-16T09:08:28.138Z,101115.19
2019-05-16T09:11:04.850Z,101108.86
2019-05-16T09:13:33.515Z,101109.42
2019-05-16T09:16:07.722Z,101103.52
2019-05-16T09:18:41.300Z,101109.85
2019-05-16T09:21:12.156Z,101106.47
2019-05-16T09:23:43.691Z,101106.66
2019-05-16T09:26:18.987Z,101103.45
2019-05-16T09:28:49.018Z,101103.88
2019-05-16T09:31:21.066Z,101098.33
2019-05-16T09:33:53.013Z,101094.02
2019-05-16T09:36:27.767Z,101098.39
2019-05-16T09:38:58.362Z,101096.38
2019-05-16T09:41:44.889Z,101098.78
2019-05-16T09:44:03.830Z,101089.09
2019-05-16T09:46:37.590Z,101089.52
2019-05-16T09:49:19.570Z,101083.75
2019-05-16T09:51:42.394Z,101082.58
2019-05-16T09:54:16.557Z,101080.61
2019-05-16T09:56:46.837Z,101077.87
2019-05-16T09:59:18.476Z,101064.84
2019-05-16T10:01:50.312Z,101066.28
2019-05-16T10:04:22.497Z,101076.39
2019-05-16T10:06:57.026Z,101072.43
2019-05-16T10:09:41.277Z,101067.45
2019-05-16T10:12:11.373Z,101069.27
2019-05-16T10:14:37.630Z,101061.75
2019-05-16T10:17:10.907Z,101058.57
2019-05-16T10:19:42.778Z,101064.12
2019-05-16T10:22:16.900Z,101063.93
2019-05-16T10:24:47.924Z,101064.33
2019-05-16T10:27:19.780Z,101058.19
2019-05-16T10:29:51.547Z,101066.73
2019-05-16T10:32:23.402Z,101059.97
2019-05-16T10:34:57.261Z,101055.62
2019-05-16T10:37:29.159Z,101066.14
2019-05-16T10:40:01.222Z,101059.17
2019-05-16T10:42:33.305Z,101052.09
2019-05-16T10:45:08.591Z,101051.88
2019-05-16T10:47:41.047Z,101053.46
2019-05-16T10:50:13.988Z,101054.25
2019-05-16T10:52:48.843Z,101051.67
2019-05-16T10:55:19.913Z,101049.30
2019-05-16T10:57:51.915Z,101051.87
2019-05-16T11:00:57.549Z,101051.46
2019-05-16T11:03:00.713Z,101045.10
2019-05-16T11:05:36.035Z,101041.72
2019-05-16T11:08:08.246Z,101038.36
2019-05-16T11:10:39.656Z,101033.17
2019-05-16T11:13:11.583Z,101038.52
2019-05-16T11:15:43.660Z,101030.97
2019-05-16T11:18:17.553Z,101027.98
2019-05-16T11:20:49.702Z,101041.89
2019-05-16T11:23:23.724Z,101022.20
2019-05-16T11:25:55.481Z,101026.98
2019-05-16T11:28:27.872Z,101026.59
2019-05-16T11:31:03.510Z,101020.78
2019-05-16T11:33:32.232Z,101017.19
2019-05-16T11:36:08.040Z,101027.09
2019-05-16T11:38:39.631Z,101015.35
2019-05-16T11:41:11.797Z,101008.19
2019-05-16T11:43:43.753Z,101010.92
2019-05-16T11:46:16.677Z,101002.73
2019-05-16T11:48:49.205Z,101005.77
2019-05-16T11:51:21.179Z,101003.19
2019-05-16T11:53:53.138Z,101003.44
2019-05-16T11:56:25.312Z,100991.69
2019-05-16T11:58:57.152Z,100994.67
2019-05-16T12:01:29.233Z,100988.86
2019-05-16T12:04:01.305Z,100987.05
2019-05-16T12:06:33.054Z,100984.48
2019-05-16T12:44:16.517Z,100957.31
2019-05-16T12:46:48.595Z,100955.31
2019-05-16T12:49:23.726Z,100946.75
2019-05-16T12:52:00.400Z,100946.72
2019-05-16T12:54:36.872Z,100942.13
2019-05-16T12:57:04.868Z,100942.70
2019-05-16T12:59:42.233Z,100936.09
2019-05-16T13:02:13.507Z,100932.66
2019-05-16T13:04:47.065Z,100931.06
2019-05-16T13:07:22.190Z,100924.47
2019-05-16T13:09:53.950Z,100918.19
2019-05-16T13:12:27.111Z,100929.05
2019-05-16T13:14:59.111Z,100926.12
2019-05-16T13:17:30.977Z,100909.84
2019-05-16T13:20:03.140Z,100913.20
2019-05-16T13:22:47.320Z,100905.41
2019-05-16T13:25:21.434Z,100910.20
2019-05-16T13:27:52.848Z,100909.78
2019-05-16T13:30:26.808Z,100899.39
2019-05-16T13:32:58.718Z,100909.60
2019-05-16T13:35:30.300Z,100905.63
2019-05-16T13:38:02.150Z,100907.31
2019-05-16T13:40:33.891Z,100906.55
2019-05-16T13:43:17.408Z,100903.67
2019-05-16T13:45:49.301Z,100904.56
2019-05-16T13:48:21.366Z,100902.69
2019-05-16T13:51:07.570Z,100901.30
2019-05-16T13:53:27.151Z,100899.00
2019-05-16T13:55:59.079Z,100897.67
2019-05-16T13:58:30.937Z,100900.48
2019-05-16T14:01:02.829Z,100896.72
2019-05-16T14:03:37.209Z,100897.87
2019-05-16T14:06:08.176Z,100884.65
2019-05-16T14:08:40.022Z,100887.40
2019-05-16T14:11:17.162Z,100891.98
2019-05-16T14:13:48.163Z,100894.14
2019-05-16T14:16:23.505Z,100891.35
2019-05-16T14:18:57.418Z,100887.93
2019-05-16T14:21:29.175Z,100892.56
2019-05-16T14:24:01.237Z,100896.55
2019-05-16T14:26:33.412Z,100901.37
2019-05-16T14:29:07.914Z,100893.14
2019-05-16T14:31:38.763Z,100889.87
2019-05-16T14:34:10.613Z,100885.44
2019-05-16T14:36:42.686Z,100882.34
2019-05-16T14:39:18.915Z,100884.31
2019-05-16T14:41:48.208Z,100887.19
2019-05-16T14:44:21.424Z,100888.20
2019-05-16T14:46:53.134Z,100887.08
2019-05-16T14:49:28.472Z,100885.30
2019-05-16T14:51:58.232Z,100886.30
2019-05-16T14:54:29.821Z,100891.30
2019-05-16T14:57:01.881Z,100887.43
2019-05-16T14:59:36.343Z,100881.44
2019-05-16T15:02:07.724Z,100878.38
2019-05-16T15:04:39.386Z,100880.69
2019-05-16T15:07:11.042Z,100880.42
2019-05-16T15:09:42.769Z,100881.61
2019-05-16T15:12:14.396Z,100881.08
2019-05-16T15:14:46.059Z,100886.30
2019-05-16T15:17:17.716Z,100881.15
2019-05-16T15:19:49.453Z,100874.53
2019-05-16T15:22:21.084Z,100879.86
2019-05-16T15:24:52.722Z,100874.78
2019-05-16T15:27:26.287Z,100872.55
2019-05-16T15:29:58.251Z,100876.69
2019-05-16T15:32:31.774Z,100878.14
2019-05-16T15:35:03.556Z,100870.36
2019-05-16T15:37:37.325Z,100881.78
2019-05-16T15:40:10.704Z,100883.88
2019-05-16T15:42:42.526Z,100885.07
2019-05-16T15:45:17.635Z,100882.36
2019-05-16T15:47:48.521Z,100882.77
2019-05-16T15:50:21.779Z,100884.08
2019-05-16T15:52:58.987Z,100877.61
2019-05-16T15:55:27.343Z,100876.17
2019-05-16T15:57:59.118Z,100880.47
2019-05-16T16:00:48.912Z,100878.22
2019-05-16T16:03:20.860Z,100884.70
2019-05-16T16:05:52.706Z,100884.34
2019-05-16T16:08:28.169Z,100882.89
2019-05-16T16:10:58.367Z,100883.31
2019-05-16T16:13:30.535Z,100879.91
2019-05-16T16:16:02.725Z,100886.73
2019-05-16T16:18:34.428Z,100884.20
2019-05-16T16:21:07.562Z,100892.17
2019-05-16T16:23:38.734Z,100887.79
2019-05-16T16:26:10.457Z,100900.84
2019-05-16T16:28:43.956Z,100892.22
2019-05-16T16:31:17.026Z,100893.42
2019-05-16T16:33:50.048Z,100890.63
2019-05-16T16:36:48.564Z,100898.78
2019-05-16T16:39:26.683Z,100897.58
2019-05-16T16:41:57.079Z,100899.77
2019-05-16T16:44:28.521Z,100900.56
2019-05-16T16:47:02.029Z,100905.55
2019-05-16T16:49:39.867Z,100900.00
2019-05-16T16:52:09.306Z,100898.53
2019-05-16T16:54:41.278Z,100896.89
2019-05-16T16:57:13.336Z,100901.13
2019-05-16T16:59:47.649Z,100900.52
2019-05-16T17:02:18.921Z,100900.52
2019-05-16T17:04:51.889Z,100902.36
2019-05-16T17:07:27.326Z,100905.00
2019-05-16T17:10:00.538Z,100901.28
2019-05-16T17:12:33.817Z,100904.89
2019-05-16T17:15:10.142Z,100904.00
2019-05-16T17:17:41.847Z,100893.39
2019-05-16T17:20:14.747Z,100901.63
2019-05-16T17:22:46.820Z,100905.66
2019-05-16T17:25:18.964Z,100901.61
2019-05-16T17:27:52.714Z,100905.46
2019-05-16T17:30:27.806Z,100902.19
2019-05-16T17:33:01.207Z,100914.70
2019-05-16T17:35:33.167Z,100914.53
2019-05-16T17:38:07.812Z,100920.73
2019-05-16T17:40:39.962Z,100921.17
2019-05-16T17:43:11.922Z,100922.03
2019-05-16T17:45:44.001Z,100925.63
2019-05-16T17:48:17.599Z,100926.06
2019-05-16T17:50:48.855Z,100927.86
2019-05-16T17:53:20.474Z,100933.28
2019-05-16T17:55:52.657Z,100931.73
2019-05-16T17:58:26.916Z,100933.22
2019-05-16T18:01:00.393Z,100930.76
2019-05-16T18:03:31.437Z,100933.77
2019-05-16T18:06:03.159Z,100938.02
2019-05-16T18:08:36.837Z,100935.48
2019-05-16T18:11:08.204Z,100938.12
2019-05-16T18:13:39.879Z,100939.94
2019-05-16T18:16:14.706Z,100939.44
2019-05-16T18:18:49.426Z,100941.92
2019-05-16T18:21:21.388Z,100933.14
2019-05-16T18:23:53.347Z,100941.48
2019-05-16T18:26:26.892Z,100933.50
2019-05-16T18:28:58.830Z,100938.51
2019-05-16T18:31:32.267Z,100936.45
2019-05-16T18:34:04.269Z,100936.17
2019-05-16T18:36:35.924Z,100934.71
2019-05-16T18:39:08.723Z,100938.34
2019-05-16T18:41:43.556Z,100941.41
2019-05-16T18:44:16.661Z,100942.47
2019-05-16T18:46:48.505Z,100947.84
2019-05-16T18:49:24.104Z,100949.07
2019-05-16T18:51:57.051Z,100951.67
2019-05-16T18:54:29.116Z,100948.54
2019-05-16T18:57:02.279Z,100944.22
2019-05-16T18:59:36.862Z,100956.09
2019-05-16T19:02:11.834Z,100953.52
2019-05-16T19:04:46.526Z,100961.25
2019-05-16T19:07:18.847Z,100960.86
2019-05-16T19:09:50.998Z,100960.23
2019-05-16T19:12:22.979Z,100964.09
2019-05-16T19:14:57.181Z,100961.22
2019-05-16T19:17:28.530Z,100958.89
2019-05-16T19:20:00.489Z,100959.52
2019-05-16T19:22:32.365Z,100957.39
2019-05-16T19:25:06.959Z,100954.34
2019-05-16T19:27:39.135Z,100957.61
2019-05-16T19:30:12.051Z,100955.22
2019-05-16T19:32:46.715Z,100950.11
2019-05-16T19:35:20.355Z,100946.22
2019-05-16T19:37:52.366Z,100946.10
2019-05-16T19:40:25.979Z,100946.58
2019-05-16T19:42:57.696Z,100948.42
2019-05-16T19:45:29.743Z,100945.94
2019-05-16T19:48:02.135Z,100944.56
2019-05-16T19:50:37.425Z,100948.94
2019-05-16T19:53:09.430Z,100946.19
2019-05-16T19:55:42.843Z,100944.49
2019-05-16T19:58:18.077Z,100942.97
2019-05-16T20:00:52.699Z,100940.69
2019-05-16T20:03:27.027Z,100939.22
2019-05-16T20:05:58.159Z,100937.25
2019-05-16T20:08:31.554Z,100940.46
2019-05-16T20:11:03.604Z,100935.34
2019-05-16T20:13:36.731Z,100941.40
2019-05-16T20:16:08.572Z,100947.45
2019-05-16T20:18:40.631Z,100945.07
2019-05-16T20:21:12.701Z,100951.36
2019-05-16T20:23:44.564Z,100945.74
2019-05-16T20:26:16.872Z,100950.20
2019-05-16T20:28:48.875Z,100955.80
2019-05-16T20:31:20.766Z,100947.67
2019-05-16T20:33:52.498Z,100952.14
2019-05-16T20:36:26.425Z,100951.22
2019-05-16T20:38:58.162Z,100954.75
2019-05-16T20:41:30.348Z,100964.05
2019-05-16T20:44:02.305Z,100962.87
2019-05-16T20:46:34.370Z,100970.42
2019-05-16T20:52:24.043Z,100965.15
2019-05-16T20:54:57.870Z,100970.19
2019-05-16T20:57:29.096Z,100977.50
2019-05-16T21:00:01.167Z,100972.59
2019-05-16T21:02:33.223Z,100974.78
2019-05-16T21:05:06.697Z,100981.19
2019-05-16T21:07:38.274Z,100979.13
2019-05-16T21:10:10.239Z,100979.13
2019-05-16T21:12:42.948Z,100982.80
2019-05-16T21:15:16.986Z,100983.94
2019-05-16T21:17:48.073Z,100986.91
2019-05-16T21:20:19.934Z,100987.16
2019-05-16T21:22:51.592Z,100987.70
2019-05-16T21:25:23.447Z,100991.61
2019-05-16T21:27:57.301Z,100992.16
2019-05-16T21:30:28.611Z,100983.48
2019-05-16T21:33:00.473Z,100983.48
2019-05-16T21:35:32.460Z,100981.09
2019-05-16T21:38:08.585Z,100980.03
2019-05-16T21:40:37.738Z,100985.66
2019-05-16T21:43:09.548Z,100983.56
2019-05-16T21:45:41.412Z,100994.34
2019-05-16T21:48:13.354Z,100979.58
2019-05-16T21:50:46.357Z,100980.48
2019-05-16T21:53:18.316Z,100976.23
2019-05-16T21:55:49.972Z,100967.66
2019-05-16T21:58:21.735Z,100968.10
2019-05-16T22:00:56.839Z,100972.66
2019-05-16T22:03:28.286Z,100968.63
2019-05-16T22:06:00.080Z,100971.71
2019-05-16T22:08:32.856Z,100971.60
2019-05-16T22:11:06.790Z,100965.64
2019-05-16T22:13:39.693Z,100960.26
2019-05-16T22:16:11.625Z,100954.66
2019-05-16T22:18:44.049Z,100953.39
2019-05-16T22:21:16.734Z,100953.73
2019-05-16T22:23:48.596Z,100955.90
2019-05-16T22:26:20.805Z,100953.61
2019-05-16T22:28:52.661Z,100957.95
2019-05-16T22:31:26.935Z,100964.71
2019-05-16T22:33:58.702Z,100962.11
2019-05-16T22:36:30.694Z,100962.31
2019-05-16T22:39:02.657Z,100964.61
2019-05-16T22:41:37.191Z,100963.44
2019-05-16T22:44:09.083Z,100964.47
2019-05-16T22:46:40.729Z,100964.33
2019-05-16T22:49:12.571Z,100966.63
2019-05-16T22:51:44.443Z,100961.81
2019-05-16T22:54:17.201Z,100964.87
2019-05-16T22:56:48.789Z,100966.58
2019-05-16T22:59:20.597Z,100967.16
2019-05-16T23:01:52.593Z,100968.30
2019-05-16T23:04:24.436Z,100959.28
2019-05-16T23:06:57.012Z,100956.30
2019-05-16T23:09:28.773Z,100945.53
2019-05-16T23:12:00.473Z,100945.08
2019-05-16T23:14:32.387Z,100943.81
2019-05-16T23:17:06.494Z,100943.67
2019-05-16T23:19:37.845Z,100951.89
2019-05-16T23:22:09.712Z,100944.83
2019-05-16T23:24:42.492Z,100941.37
2019-05-16T23:27:14.032Z,100938.63
2019-05-16T23:29:47.443Z,100936.47
2019-05-16T23:32:20.119Z,100948.80
2019-05-16T23:34:52.362Z,100942.97
2019-05-16T23:37:24.259Z,100944.11
2019-05-16T23:39:56.870Z,100942.86
2019-05-16T23:42:28.592Z,100951.19
2019-05-16T23:45:00.244Z,100945.56
2019-05-16T23:47:31.763Z,100943.40
2019-05-16T23:50:07.596Z,100945.32
2019-05-16T23:52:39.102Z,100949.77
2019-05-16T23:55:11.181Z,100948.98
2019-05-16T23:57:42.678Z,100955.25
